Hauptseite
METAR-TAF:

METAR-TAF

Flughäfen :

Flughafen Stettin-Goleniów

Stettin, Polen

Breite: 53-35N, Länge: 014-54E, Höhe: 1 m

Beobachtung

Neuester Wetterbericht von vor 21 Minuten, um 19:00 UTC
Wind 6 kt aus Südost
Temperatur 19°C
Luftfeuchtigkeit 68%
Luftdruck 1016 hPa
Sichtweite 10 km oder mehr
keine Wolken unter 1500 m und keine Kumulonimbus oder Gewitterwolken

METAR: EPSC 191900Z 13006KT CAVOK 19/13 Q1016

Zeit: 21:21 (19:21 UTC)

Prognose

Neuester Wetterbericht von vor 1 Stunde und 51 Minuten, um 17:30 UTC
Gültige Prognose vom 19 um 18 UTC bis 20 um 18 UTC
Wind 4 kt aus Süd/Südwest
Sichtweite 10 km oder mehr
keine Wolken unter 1500 m und keine Kumulonimbus oder Gewitterwolken

TAF: EPSC 191730Z 1918/2018 21004KT CAVOK

Wetterbeobachtungen und Prognosen von mehr als 4000 Flughäfen (METAR und TAF Bericht).

Die verfügbaren Stationen werden durch gelbe und rote Markierungen auf der Karte dargestellt.

Führen Sie die Maus auf sie, um den Namen der Station zu sehen.

Darauf klicken, um die Beobachtung von Wetterbeobachtungen und Prognosen zu sehen.

Um die Karte zu ändern : klicken Sie auf den grünen Tasten mit einem schwarzen Kreuz Zum Vergrößern, auf den grünen Button mit einem Gedankenstrich zu verkleinern, oder auf die grünen Pfeile für benachbarte Karten.


METAR-TAF: